sensor_id;sensor_type;location;lat;lon;timestamp;P1;durP1;ratioP1;P2;durP2;ratioP2
3733;SDS011;1882;52.256;8.874;2022-07-11T10:09:14;2.80;;;1.90;;
3733;SDS011;1882;52.256;8.874;2022-07-11T10:11:43;2.10;;;1.97;;
3733;SDS011;1882;52.256;8.874;2022-07-11T10:14:10;2.80;;;1.80;;
3733;SDS011;1882;52.256;8.874;2022-07-11T10:19:14;2.10;;;2.00;;
3733;SDS011;1882;52.256;8.874;2022-07-11T10:25:25;2.80;;;2.20;;
3733;SDS011;1882;52.256;8.874;2022-07-11T10:28:03;2.47;;;2.27;;
3733;SDS011;1882;52.256;8.874;2022-07-11T10:30:42;2.07;;;1.93;;
3733;SDS011;1882;52.256;8.874;2022-07-11T10:33:22;2.70;;;2.00;;
3733;SDS011;1882;52.256;8.874;2022-07-11T10:35:50;1.60;;;1.50;;
3733;SDS011;1882;52.256;8.874;2022-07-11T10:38:19;1.80;;;1.40;;
3733;SDS011;1882;52.256;8.874;2022-07-11T10:40:50;1.40;;;1.30;;
3733;SDS011;1882;52.256;8.874;2022-07-11T10:46:10;1.97;;;1.47;;
3733;SDS011;1882;52.256;8.874;2022-07-11T10:51:35;1.87;;;1.57;;
3733;SDS011;1882;52.256;8.874;2022-07-11T10:57:31;1.63;;;1.53;;
3733;SDS011;1882;52.256;8.874;2022-07-11T11:00:07;1.43;;;1.33;;
3733;SDS011;1882;52.256;8.874;2022-07-11T11:05:41;1.50;;;1.40;;
3733;SDS011;1882;52.256;8.874;2022-07-11T11:10:59;3.83;;;1.40;;
3733;SDS011;1882;52.256;8.874;2022-07-11T11:13:34;1.90;;;1.47;;
3733;SDS011;1882;52.256;8.874;2022-07-11T11:16:19;1.43;;;1.33;;
3733;SDS011;1882;52.256;8.874;2022-07-11T11:18:49;1.40;;;1.30;;
3733;SDS011;1882;52.256;8.874;2022-07-11T11:21:22;3.57;;;1.77;;
3733;SDS011;1882;52.256;8.874;2022-07-11T11:26:47;2.23;;;2.07;;
3733;SDS011;1882;52.256;8.874;2022-07-11T11:29:19;3.80;;;2.20;;
3733;SDS011;1882;52.256;8.874;2022-07-11T11:31:48;4.70;;;1.80;;
3733;SDS011;1882;52.256;8.874;2022-07-11T11:34:21;2.30;;;1.80;;
3733;SDS011;1882;52.256;8.874;2022-07-11T11:37:06;2.70;;;2.03;;
3733;SDS011;1882;52.256;8.874;2022-07-11T11:39:35;2.77;;;2.10;;
3733;SDS011;1882;52.256;8.874;2022-07-11T11:42:06;2.20;;;2.10;;
3733;SDS011;1882;52.256;8.874;2022-07-11T11:44:35;1.90;;;1.80;;
3733;SDS011;1882;52.256;8.874;2022-07-11T11:47:21;2.63;;;2.43;;
3733;SDS011;1882;52.256;8.874;2022-07-11T11:49:48;2.30;;;2.20;;
3733;SDS011;1882;52.256;8.874;2022-07-11T11:52:16;2.77;;;2.57;;
3733;SDS011;1882;52.256;8.874;2022-07-11T11:54:44;3.10;;;2.80;;
3733;SDS011;1882;52.256;8.874;2022-07-11T11:57:26;3.43;;;2.93;;
3733;SDS011;1882;52.256;8.874;2022-07-11T12:07:20;3.63;;;2.90;;
3733;SDS011;1882;52.256;8.874;2022-07-11T12:09:57;3.20;;;2.83;;
3733;SDS011;1882;52.256;8.874;2022-07-11T12:12:27;3.50;;;3.20;;
3733;SDS011;1882;52.256;8.874;2022-07-11T12:15:23;2.77;;;2.57;;
3733;SDS011;1882;52.256;8.874;2022-07-11T12:17:57;4.50;;;3.17;;
3733;SDS011;1882;52.256;8.874;2022-07-11T12:23:06;3.17;;;2.87;;
3733;SDS011;1882;52.256;8.874;2022-07-11T12:25:43;3.40;;;3.10;;
3733;SDS011;1882;52.256;8.874;2022-07-11T12:28:12;2.80;;;2.60;;
3733;SDS011;1882;52.256;8.874;2022-07-11T12:30:53;4.67;;;2.77;;
3733;SDS011;1882;52.256;8.874;2022-07-11T12:33:21;5.00;;;2.70;;
3733;SDS011;1882;52.256;8.874;2022-07-11T12:38:24;3.10;;;2.90;;
3733;SDS011;1882;52.256;8.874;2022-07-11T12:40:58;5.47;;;3.10;;
3733;SDS011;1882;52.256;8.874;2022-07-11T12:43:42;3.20;;;2.77;;
3733;SDS011;1882;52.256;8.874;2022-07-11T12:46:35;3.60;;;3.30;;
3733;SDS011;1882;52.256;8.874;2022-07-11T12:49:04;3.20;;;2.90;;
3733;SDS011;1882;52.256;8.874;2022-07-11T12:51:33;3.13;;;2.90;;
3733;SDS011;1882;52.256;8.874;2022-07-11T12:56:35;2.90;;;2.63;;
3733;SDS011;1882;52.256;8.874;2022-07-11T12:59:03;2.87;;;2.67;;
3733;SDS011;1882;52.256;8.874;2022-07-11T13:01:52;2.93;;;2.73;;
3733;SDS011;1882;52.256;8.874;2022-07-11T13:10:09;3.20;;;2.90;;
3733;SDS011;1882;52.256;8.874;2022-07-11T13:13:34;3.57;;;3.27;;
3733;SDS011;1882;52.256;8.874;2022-07-11T13:16:03;3.93;;;3.53;;
3733;SDS011;1882;52.256;8.874;2022-07-11T13:18:34;3.37;;;3.07;;
3733;SDS011;1882;52.256;8.874;2022-07-11T13:21:03;3.20;;;2.90;;
3733;SDS011;1882;52.256;8.874;2022-07-11T13:23:42;7.10;;;2.87;;
3733;SDS011;1882;52.256;8.874;2022-07-11T13:26:13;3.30;;;3.00;;
3733;SDS011;1882;52.256;8.874;2022-07-11T13:28:40;3.80;;;2.93;;
3733;SDS011;1882;52.256;8.874;2022-07-11T13:31:13;3.10;;;2.90;;
3733;SDS011;1882;52.256;8.874;2022-07-11T13:33:42;3.50;;;3.20;;
3733;SDS011;1882;52.256;8.874;2022-07-11T13:36:12;4.53;;;3.37;;
3733;SDS011;1882;52.256;8.874;2022-07-11T13:38:42;4.33;;;3.40;;
3733;SDS011;1882;52.256;8.874;2022-07-11T13:41:09;5.60;;;3.27;;
3733;SDS011;1882;52.256;8.874;2022-07-11T13:43:43;4.60;;;3.30;;
3733;SDS011;1882;52.256;8.874;2022-07-11T13:46:13;3.13;;;2.93;;
3733;SDS011;1882;52.256;8.874;2022-07-11T13:48:40;2.80;;;2.60;;
3733;SDS011;1882;52.256;8.874;2022-07-11T13:51:12;2.80;;;2.60;;
3733;SDS011;1882;52.256;8.874;2022-07-11T13:53:42;2.33;;;2.23;;
3733;SDS011;1882;52.256;8.874;2022-07-11T13:56:14;2.90;;;2.70;;
3733;SDS011;1882;52.256;8.874;2022-07-11T13:58:41;2.97;;;2.13;;
3733;SDS011;1882;52.256;8.874;2022-07-11T14:01:08;1.87;;;1.77;;
3733;SDS011;1882;52.256;8.874;2022-07-11T14:03:45;2.40;;;2.30;;
3733;SDS011;1882;52.256;8.874;2022-07-11T14:06:11;2.60;;;2.40;;
3733;SDS011;1882;52.256;8.874;2022-07-11T14:08:58;2.30;;;2.20;;
3733;SDS011;1882;52.256;8.874;2022-07-11T14:11:24;2.20;;;2.00;;
3733;SDS011;1882;52.256;8.874;2022-07-11T14:13:57;2.50;;;2.30;;
3733;SDS011;1882;52.256;8.874;2022-07-11T14:16:24;2.60;;;2.40;;
3733;SDS011;1882;52.256;8.874;2022-07-11T14:18:53;2.53;;;2.37;;
3733;SDS011;1882;52.256;8.874;2022-07-11T14:21:20;2.40;;;2.20;;
3733;SDS011;1882;52.256;8.874;2022-07-11T14:23:46;2.73;;;2.53;;
3733;SDS011;1882;52.256;8.874;2022-07-11T14:26:15;3.30;;;3.00;;
3733;SDS011;1882;52.256;8.874;2022-07-11T14:28:42;3.40;;;2.67;;
3733;SDS011;1882;52.256;8.874;2022-07-11T14:31:09;5.27;;;3.70;;
3733;SDS011;1882;52.256;8.874;2022-07-11T14:33:38;13.53;;;8.50;;
3733;SDS011;1882;52.256;8.874;2022-07-11T14:36:05;6.67;;;5.80;;
3733;SDS011;1882;52.256;8.874;2022-07-11T14:38:43;5.33;;;4.43;;
3733;SDS011;1882;52.256;8.874;2022-07-11T14:41:15;6.03;;;4.77;;
3733;SDS011;1882;52.256;8.874;2022-07-11T14:43:44;3.10;;;2.90;;
3733;SDS011;1882;52.256;8.874;2022-07-11T14:46:13;2.83;;;2.63;;
3733;SDS011;1882;52.256;8.874;2022-07-11T14:48:40;4.33;;;2.90;;
3733;SDS011;1882;52.256;8.874;2022-07-11T14:51:07;3.10;;;2.80;;
3733;SDS011;1882;52.256;8.874;2022-07-11T14:53:34;3.43;;;3.13;;
3733;SDS011;1882;52.256;8.874;2022-07-11T14:56:10;3.60;;;2.77;;
3733;SDS011;1882;52.256;8.874;2022-07-11T14:59:00;2.80;;;2.60;;
3733;SDS011;1882;52.256;8.874;2022-07-11T15:01:27;2.73;;;2.53;;
3733;SDS011;1882;52.256;8.874;2022-07-11T15:03:54;3.70;;;2.80;;
3733;SDS011;1882;52.256;8.874;2022-07-11T15:06:21;2.87;;;2.67;;
3733;SDS011;1882;52.256;8.874;2022-07-11T15:09:08;5.70;;;3.17;;
3733;SDS011;1882;52.256;8.874;2022-07-11T15:11:53;2.63;;;2.43;;
3733;SDS011;1882;52.256;8.874;2022-07-11T15:14:39;4.47;;;3.40;;
3733;SDS011;1882;52.256;8.874;2022-07-11T15:17:05;2.90;;;2.60;;
3733;SDS011;1882;52.256;8.874;2022-07-11T15:19:32;4.40;;;3.10;;
3733;SDS011;1882;52.256;8.874;2022-07-11T15:21:59;2.90;;;2.70;;
3733;SDS011;1882;52.256;8.874;2022-07-11T15:24:26;2.90;;;2.70;;
3733;SDS011;1882;52.256;8.874;2022-07-11T15:26:55;5.07;;;2.63;;
3733;SDS011;1882;52.256;8.874;2022-07-11T15:29:25;3.00;;;2.80;;
3733;SDS011;1882;52.256;8.874;2022-07-11T15:31:59;3.90;;;2.70;;
3733;SDS011;1882;52.256;8.874;2022-07-11T15:34:26;2.70;;;2.50;;
3733;SDS011;1882;52.256;8.874;2022-07-11T15:36:53;3.17;;;2.87;;
3733;SDS011;1882;52.256;8.874;2022-07-11T15:39:22;3.03;;;2.83;;
3733;SDS011;1882;52.256;8.874;2022-07-11T15:41:49;3.17;;;2.87;;
3733;SDS011;1882;52.256;8.874;2022-07-11T15:44:15;4.50;;;2.90;;
3733;SDS011;1882;52.256;8.874;2022-07-11T15:46:42;3.30;;;2.60;;
3733;SDS011;1882;52.256;8.874;2022-07-11T15:49:09;2.50;;;2.30;;
3733;SDS011;1882;52.256;8.874;2022-07-11T15:51:45;2.90;;;2.40;;
3733;SDS011;1882;52.256;8.874;2022-07-11T15:54:12;2.93;;;2.57;;
3733;SDS011;1882;52.256;8.874;2022-07-11T15:56:41;3.63;;;2.63;;
3733;SDS011;1882;52.256;8.874;2022-07-11T15:59:11;5.23;;;3.50;;
3733;SDS011;1882;52.256;8.874;2022-07-11T16:01:38;3.17;;;2.93;;
3733;SDS011;1882;52.256;8.874;2022-07-11T16:04:05;5.20;;;4.50;;
3733;SDS011;1882;52.256;8.874;2022-07-11T16:06:35;4.43;;;3.60;;
3733;SDS011;1882;52.256;8.874;2022-07-11T16:09:03;2.73;;;2.50;;
3733;SDS011;1882;52.256;8.874;2022-07-11T16:11:30;4.47;;;2.63;;
3733;SDS011;1882;52.256;8.874;2022-07-11T16:13:57;4.87;;;3.93;;
3733;SDS011;1882;52.256;8.874;2022-07-11T16:16:23;2.70;;;2.50;;
3733;SDS011;1882;52.256;8.874;2022-07-11T16:18:52;2.67;;;2.47;;
3733;SDS011;1882;52.256;8.874;2022-07-11T16:21:20;2.67;;;2.47;;
3733;SDS011;1882;52.256;8.874;2022-07-11T16:23:47;5.30;;;3.30;;
3733;SDS011;1882;52.256;8.874;2022-07-11T16:26:14;4.03;;;3.00;;
3733;SDS011;1882;52.256;8.874;2022-07-11T16:28:42;3.63;;;3.00;;
3733;SDS011;1882;52.256;8.874;2022-07-11T16:31:09;4.80;;;3.13;;
3733;SDS011;1882;52.256;8.874;2022-07-11T16:33:36;3.20;;;2.90;;
3733;SDS011;1882;52.256;8.874;2022-07-11T16:36:09;4.37;;;3.50;;
3733;SDS011;1882;52.256;8.874;2022-07-11T16:38:36;3.77;;;3.27;;
3733;SDS011;1882;52.256;8.874;2022-07-11T16:41:30;8.23;;;3.57;;
3733;SDS011;1882;52.256;8.874;2022-07-11T16:44:15;4.10;;;3.70;;
3733;SDS011;1882;52.256;8.874;2022-07-11T16:46:42;3.53;;;2.93;;
3733;SDS011;1882;52.256;8.874;2022-07-11T16:49:12;3.40;;;3.10;;
3733;SDS011;1882;52.256;8.874;2022-07-11T16:51:46;5.17;;;3.10;;
3733;SDS011;1882;52.256;8.874;2022-07-11T16:54:13;2.87;;;2.67;;
3733;SDS011;1882;52.256;8.874;2022-07-11T16:56:40;3.00;;;2.80;;
3733;SDS011;1882;52.256;8.874;2022-07-11T16:59:22;3.40;;;3.10;;
3733;SDS011;1882;52.256;8.874;2022-07-11T17:01:49;3.30;;;3.00;;
3733;SDS011;1882;52.256;8.874;2022-07-11T17:04:16;4.10;;;2.90;;
3733;SDS011;1882;52.256;8.874;2022-07-11T17:06:47;3.03;;;2.60;;
3733;SDS011;1882;52.256;8.874;2022-07-11T17:09:14;3.07;;;2.87;;
3733;SDS011;1882;52.256;8.874;2022-07-11T17:11:41;3.77;;;2.70;;
3733;SDS011;1882;52.256;8.874;2022-07-11T17:14:07;4.37;;;3.10;;
3733;SDS011;1882;52.256;8.874;2022-07-11T17:16:34;2.80;;;2.60;;
3733;SDS011;1882;52.256;8.874;2022-07-11T17:19:02;3.17;;;2.87;;
3733;SDS011;1882;52.256;8.874;2022-07-11T17:21:29;2.90;;;2.70;;
3733;SDS011;1882;52.256;8.874;2022-07-11T17:23:56;2.77;;;2.57;;
3733;SDS011;1882;52.256;8.874;2022-07-11T17:26:24;3.03;;;2.73;;
3733;SDS011;1882;52.256;8.874;2022-07-11T17:28:51;2.83;;;2.53;;
3733;SDS011;1882;52.256;8.874;2022-07-11T17:31:20;3.67;;;3.07;;
3733;SDS011;1882;52.256;8.874;2022-07-11T17:33:47;2.80;;;2.60;;
3733;SDS011;1882;52.256;8.874;2022-07-11T17:36:14;2.50;;;2.30;;
3733;SDS011;1882;52.256;8.874;2022-07-11T17:38:44;2.17;;;1.97;;
3733;SDS011;1882;52.256;8.874;2022-07-11T17:41:18;1.83;;;1.73;;
3733;SDS011;1882;52.256;8.874;2022-07-11T17:43:45;2.10;;;2.00;;
3733;SDS011;1882;52.256;8.874;2022-07-11T17:46:13;2.00;;;1.80;;
3733;SDS011;1882;52.256;8.874;2022-07-11T17:48:47;2.47;;;1.80;;
3733;SDS011;1882;52.256;8.874;2022-07-11T17:51:14;1.80;;;1.70;;
3733;SDS011;1882;52.256;8.874;2022-07-11T17:53:52;2.53;;;2.10;;
3733;SDS011;1882;52.256;8.874;2022-07-11T17:56:19;1.80;;;1.70;;
3733;SDS011;1882;52.256;8.874;2022-07-11T17:58:46;1.87;;;1.77;;
3733;SDS011;1882;52.256;8.874;2022-07-11T18:01:13;4.53;;;1.60;;
3733;SDS011;1882;52.256;8.874;2022-07-11T18:03:43;1.80;;;1.70;;
3733;SDS011;1882;52.256;8.874;2022-07-11T18:06:10;1.63;;;1.53;;
3733;SDS011;1882;52.256;8.874;2022-07-11T18:08:42;1.70;;;1.60;;
3733;SDS011;1882;52.256;8.874;2022-07-11T18:11:13;3.23;;;2.10;;
3733;SDS011;1882;52.256;8.874;2022-07-11T18:13:44;1.80;;;1.70;;
3733;SDS011;1882;52.256;8.874;2022-07-11T18:16:17;1.97;;;1.70;;
3733;SDS011;1882;52.256;8.874;2022-07-11T18:18:44;3.00;;;1.77;;
3733;SDS011;1882;52.256;8.874;2022-07-11T18:21:11;1.90;;;1.67;;
3733;SDS011;1882;52.256;8.874;2022-07-11T18:23:41;4.27;;;2.10;;
3733;SDS011;1882;52.256;8.874;2022-07-11T18:26:08;2.37;;;1.97;;
3733;SDS011;1882;52.256;8.874;2022-07-11T18:28:41;3.30;;;3.00;;
3733;SDS011;1882;52.256;8.874;2022-07-11T18:31:10;3.60;;;2.13;;
3733;SDS011;1882;52.256;8.874;2022-07-11T18:33:38;4.57;;;2.70;;
3733;SDS011;1882;52.256;8.874;2022-07-11T18:36:12;2.83;;;2.50;;
3733;SDS011;1882;52.256;8.874;2022-07-11T18:38:41;5.30;;;2.60;;
3733;SDS011;1882;52.256;8.874;2022-07-11T18:41:34;6.63;;;2.73;;
3733;SDS011;1882;52.256;8.874;2022-07-11T18:44:01;3.73;;;2.60;;
3733;SDS011;1882;52.256;8.874;2022-07-11T18:46:36;4.17;;;2.70;;
3733;SDS011;1882;52.256;8.874;2022-07-11T18:49:04;3.27;;;2.43;;
3733;SDS011;1882;52.256;8.874;2022-07-11T18:51:31;3.03;;;2.67;;
3733;SDS011;1882;52.256;8.874;2022-07-11T18:53:58;2.87;;;2.57;;
3733;SDS011;1882;52.256;8.874;2022-07-11T18:56:27;3.03;;;2.60;;
3733;SDS011;1882;52.256;8.874;2022-07-11T18:58:54;4.47;;;2.53;;
3733;SDS011;1882;52.256;8.874;2022-07-11T19:01:20;3.57;;;2.60;;
3733;SDS011;1882;52.256;8.874;2022-07-11T19:03:47;3.60;;;2.60;;
3733;SDS011;1882;52.256;8.874;2022-07-11T19:06:14;2.83;;;2.63;;
3733;SDS011;1882;52.256;8.874;2022-07-11T19:08:48;6.20;;;2.30;;
3733;SDS011;1882;52.256;8.874;2022-07-11T19:11:15;2.50;;;2.30;;
3733;SDS011;1882;52.256;8.874;2022-07-11T19:13:42;2.80;;;2.50;;
3733;SDS011;1882;52.256;8.874;2022-07-11T19:16:08;3.47;;;3.17;;
3733;SDS011;1882;52.256;8.874;2022-07-11T19:18:35;2.77;;;2.50;;
3733;SDS011;1882;52.256;8.874;2022-07-11T19:21:08;3.07;;;2.63;;
3733;SDS011;1882;52.256;8.874;2022-07-11T19:23:35;3.43;;;3.00;;
3733;SDS011;1882;52.256;8.874;2022-07-11T19:26:05;4.70;;;3.10;;
3733;SDS011;1882;52.256;8.874;2022-07-11T19:28:41;3.20;;;2.50;;
3733;SDS011;1882;52.256;8.874;2022-07-11T19:31:09;2.90;;;2.70;;
3733;SDS011;1882;52.256;8.874;2022-07-11T19:33:43;3.60;;;2.70;;
3733;SDS011;1882;52.256;8.874;2022-07-11T19:36:12;3.13;;;2.83;;
3733;SDS011;1882;52.256;8.874;2022-07-11T19:38:40;3.33;;;2.63;;
3733;SDS011;1882;52.256;8.874;2022-07-11T19:41:07;5.20;;;2.63;;
3733;SDS011;1882;52.256;8.874;2022-07-11T19:43:33;4.80;;;2.80;;
3733;SDS011;1882;52.256;8.874;2022-07-11T19:46:05;3.07;;;2.53;;
3733;SDS011;1882;52.256;8.874;2022-07-11T19:48:34;2.60;;;2.40;;
3733;SDS011;1882;52.256;8.874;2022-07-11T19:51:01;3.40;;;2.33;;
3733;SDS011;1882;52.256;8.874;2022-07-11T19:53:43;3.67;;;2.33;;
3733;SDS011;1882;52.256;8.874;2022-07-11T19:56:16;2.97;;;2.60;;
3733;SDS011;1882;52.256;8.874;2022-07-11T19:59:01;2.40;;;2.30;;
3733;SDS011;1882;52.256;8.874;2022-07-11T20:01:28;2.80;;;2.60;;
3733;SDS011;1882;52.256;8.874;2022-07-11T20:03:56;4.70;;;2.47;;
3733;SDS011;1882;52.256;8.874;2022-07-11T20:06:23;4.03;;;2.73;;
3733;SDS011;1882;52.256;8.874;2022-07-11T20:08:50;3.37;;;2.60;;
3733;SDS011;1882;52.256;8.874;2022-07-11T20:11:19;2.60;;;2.40;;
3733;SDS011;1882;52.256;8.874;2022-07-11T20:13:46;3.57;;;2.30;;
3733;SDS011;1882;52.256;8.874;2022-07-11T20:16:12;4.37;;;2.43;;
3733;SDS011;1882;52.256;8.874;2022-07-11T20:18:39;4.27;;;3.50;;
3733;SDS011;1882;52.256;8.874;2022-07-11T20:21:09;5.57;;;3.27;;
3733;SDS011;1882;52.256;8.874;2022-07-11T20:23:35;7.20;;;5.10;;
3733;SDS011;1882;52.256;8.874;2022-07-11T20:26:09;4.37;;;2.87;;
3733;SDS011;1882;52.256;8.874;2022-07-11T20:28:37;4.10;;;2.50;;
3733;SDS011;1882;52.256;8.874;2022-07-11T20:31:10;4.10;;;2.50;;
3733;SDS011;1882;52.256;8.874;2022-07-11T20:33:37;2.67;;;2.47;;
3733;SDS011;1882;52.256;8.874;2022-07-11T20:36:07;2.20;;;2.10;;
3733;SDS011;1882;52.256;8.874;2022-07-11T20:38:43;6.63;;;2.20;;
3733;SDS011;1882;52.256;8.874;2022-07-11T20:41:10;2.17;;;2.07;;
3733;SDS011;1882;52.256;8.874;2022-07-11T20:43:37;4.50;;;2.50;;
3733;SDS011;1882;52.256;8.874;2022-07-11T20:46:10;4.40;;;2.67;;
3733;SDS011;1882;52.256;8.874;2022-07-11T20:48:37;2.90;;;2.70;;
3733;SDS011;1882;52.256;8.874;2022-07-11T20:51:04;2.40;;;2.20;;
3733;SDS011;1882;52.256;8.874;2022-07-11T20:53:41;2.20;;;2.00;;
3733;SDS011;1882;52.256;8.874;2022-07-11T20:56:11;7.30;;;2.50;;
3733;SDS011;1882;52.256;8.874;2022-07-11T20:58:37;2.40;;;2.20;;
3733;SDS011;1882;52.256;8.874;2022-07-11T21:01:12;2.20;;;2.10;;
3733;SDS011;1882;52.256;8.874;2022-07-11T21:03:42;4.13;;;2.40;;
3733;SDS011;1882;52.256;8.874;2022-07-11T21:06:08;2.10;;;1.90;;
3733;SDS011;1882;52.256;8.874;2022-07-11T21:08:44;4.43;;;2.33;;
3733;SDS011;1882;52.256;8.874;2022-07-11T21:11:14;2.50;;;2.30;;
3733;SDS011;1882;52.256;8.874;2022-07-11T21:13:43;3.40;;;1.93;;
3733;SDS011;1882;52.256;8.874;2022-07-11T21:16:20;2.73;;;2.03;;
3733;SDS011;1882;52.256;8.874;2022-07-11T21:18:46;4.13;;;2.10;;
3733;SDS011;1882;52.256;8.874;2022-07-11T21:21:13;1.80;;;1.70;;
3733;SDS011;1882;52.256;8.874;2022-07-11T21:23:53;3.10;;;2.30;;
3733;SDS011;1882;52.256;8.874;2022-07-11T21:26:20;2.37;;;2.00;;
3733;SDS011;1882;52.256;8.874;2022-07-11T21:28:50;2.20;;;2.10;;
3733;SDS011;1882;52.256;8.874;2022-07-11T21:31:17;2.03;;;1.93;;
3733;SDS011;1882;52.256;8.874;2022-07-11T21:33:44;2.17;;;1.97;;
3733;SDS011;1882;52.256;8.874;2022-07-11T21:36:11;4.53;;;1.77;;
3733;SDS011;1882;52.256;8.874;2022-07-11T21:38:38;3.50;;;2.47;;
3733;SDS011;1882;52.256;8.874;2022-07-11T21:41:12;2.70;;;2.17;;
3733;SDS011;1882;52.256;8.874;2022-07-11T21:43:42;2.60;;;2.20;;
3733;SDS011;1882;52.256;8.874;2022-07-11T21:46:08;5.60;;;2.20;;
3733;SDS011;1882;52.256;8.874;2022-07-11T21:48:48;4.00;;;2.60;;
3733;SDS011;1882;52.256;8.874;2022-07-11T21:51:15;3.63;;;2.57;;
3733;SDS011;1882;52.256;8.874;2022-07-11T21:53:42;3.87;;;2.80;;
3733;SDS011;1882;52.256;8.874;2022-07-11T21:56:18;3.23;;;2.27;;
3733;SDS011;1882;52.256;8.874;2022-07-11T21:58:44;2.63;;;2.20;;
3733;SDS011;1882;52.256;8.874;2022-07-11T22:01:11;2.50;;;2.30;;
3733;SDS011;1882;52.256;8.874;2022-07-11T22:03:38;2.90;;;2.50;;
3733;SDS011;1882;52.256;8.874;2022-07-11T22:06:07;2.77;;;2.57;;
3733;SDS011;1882;52.256;8.874;2022-07-11T22:08:39;9.33;;;2.27;;
3733;SDS011;1882;52.256;8.874;2022-07-11T22:11:05;2.67;;;2.47;;
3733;SDS011;1882;52.256;8.874;2022-07-11T22:13:34;2.87;;;2.57;;
3733;SDS011;1882;52.256;8.874;2022-07-11T22:16:09;6.83;;;2.40;;
3733;SDS011;1882;52.256;8.874;2022-07-11T22:18:36;3.30;;;2.80;;
3733;SDS011;1882;52.256;8.874;2022-07-11T22:21:12;3.17;;;2.90;;
3733;SDS011;1882;52.256;8.874;2022-07-11T22:23:39;3.37;;;2.50;;
3733;SDS011;1882;52.256;8.874;2022-07-11T22:26:11;5.77;;;2.80;;
3733;SDS011;1882;52.256;8.874;2022-07-11T22:28:46;4.73;;;2.80;;
3733;SDS011;1882;52.256;8.874;2022-07-11T22:31:13;2.70;;;2.50;;
3733;SDS011;1882;52.256;8.874;2022-07-11T22:33:40;2.87;;;2.67;;
3733;SDS011;1882;52.256;8.874;2022-07-11T22:36:10;4.03;;;3.00;;
3733;SDS011;1882;52.256;8.874;2022-07-11T22:38:40;5.00;;;2.50;;
3733;SDS011;1882;52.256;8.874;2022-07-11T22:41:10;3.27;;;3.03;;
3733;SDS011;1882;52.256;8.874;2022-07-11T22:43:39;3.63;;;2.80;;
3733;SDS011;1882;52.256;8.874;2022-07-11T22:46:08;4.50;;;2.80;;
3733;SDS011;1882;52.256;8.874;2022-07-11T22:49:02;3.73;;;2.80;;
3733;SDS011;1882;52.256;8.874;2022-07-11T22:51:29;5.30;;;2.70;;
3733;SDS011;1882;52.256;8.874;2022-07-11T22:53:58;3.20;;;2.90;;
3733;SDS011;1882;52.256;8.874;2022-07-11T22:56:25;4.37;;;3.03;;
3733;SDS011;1882;52.256;8.874;2022-07-11T22:58:52;4.20;;;2.40;;
3733;SDS011;1882;52.256;8.874;2022-07-11T23:01:18;2.77;;;2.50;;
3733;SDS011;1882;52.256;8.874;2022-07-11T23:03:45;6.77;;;2.87;;
3733;SDS011;1882;52.256;8.874;2022-07-11T23:06:19;3.03;;;2.40;;
3733;SDS011;1882;52.256;8.874;2022-07-11T23:08:46;4.73;;;2.53;;
3733;SDS011;1882;52.256;8.874;2022-07-11T23:11:12;4.63;;;2.90;;
3733;SDS011;1882;52.256;8.874;2022-07-11T23:13:39;5.60;;;2.40;;
3733;SDS011;1882;52.256;8.874;2022-07-11T23:16:14;5.80;;;2.53;;
3733;SDS011;1882;52.256;8.874;2022-07-11T23:18:44;4.13;;;2.80;;
3733;SDS011;1882;52.256;8.874;2022-07-11T23:21:11;6.53;;;2.97;;
3733;SDS011;1882;52.256;8.874;2022-07-11T23:23:41;2.87;;;2.67;;
3733;SDS011;1882;52.256;8.874;2022-07-11T23:26:08;2.53;;;2.37;;
3733;SDS011;1882;52.256;8.874;2022-07-11T23:28:36;4.93;;;3.00;;
3733;SDS011;1882;52.256;8.874;2022-07-11T23:31:11;5.20;;;2.30;;
3733;SDS011;1882;52.256;8.874;2022-07-11T23:33:37;3.70;;;2.53;;
3733;SDS011;1882;52.256;8.874;2022-07-11T23:36:06;4.43;;;2.30;;
3733;SDS011;1882;52.256;8.874;2022-07-11T23:38:45;4.20;;;2.50;;
3733;SDS011;1882;52.256;8.874;2022-07-11T23:41:12;2.60;;;2.40;;
3733;SDS011;1882;52.256;8.874;2022-07-11T23:43:39;3.17;;;2.30;;
3733;SDS011;1882;52.256;8.874;2022-07-11T23:46:13;5.57;;;2.70;;
3733;SDS011;1882;52.256;8.874;2022-07-11T23:48:42;2.83;;;2.47;;
3733;SDS011;1882;52.256;8.874;2022-07-11T23:51:11;2.80;;;2.33;;
3733;SDS011;1882;52.256;8.874;2022-07-11T23:53:40;3.77;;;3.03;;
3733;SDS011;1882;52.256;8.874;2022-07-11T23:56:14;4.07;;;2.83;;
3733;SDS011;1882;52.256;8.874;2022-07-11T23:58:41;6.20;;;2.90;;
